This is the latest recevied weather packets stored in our database for station/object KM5VY. If no packets are shown the sender has not sent any weather packets the latest 10 day(s).
| Time | Temp. | Humidity | Pressure | Rain* | Wind** | Luminosity | Snow |
|---|---|---|---|---|---|---|---|
| 1777957183 | 14.44° C | 30% | 1013.9 hPa | 0 mm | - | - | - |
| 1777956672 | 14.44° C | 30% | 1013.9 hPa | 0 mm | - | - | - |
| 1777956582 | 14.44° C | 30% | 1013.9 hPa | 0 mm | - | - | - |
| 1777955981 | 14.44° C | 30% | 1013.5 hPa | 0 mm | - | - | - |
| 1777955679 | 15° C | 29% | 1013.5 hPa | 0 mm | - | - | - |
| 1777955433 | 15° C | 29% | 1013.5 hPa | 0 mm | - | - | - |
| 1777955380 | 15° C | 29% | 1013.5 hPa | 0 mm | - | - | - |
| 1777954779 | 15° C | 29% | 1013.5 hPa | 0 mm | - | - | - |
| 1777953797 | 15° C | 29% | 1013.9 hPa | 0 mm | - | - | - |
| 1777953662 | 16.11° C | 27% | 1012.9 hPa | 0 mm | - | - | - |
| 1777953576 | 15° C | 29% | 1013.9 hPa | 0 mm | - | - | - |
| 1777953503 | 16.11° C | 27% | 1012.9 hPa | 0 mm | - | - | - |
| 1777953482 | 16.67° C | 27% | 1012.9 hPa | 0 mm | - | - | - |
| 1777952837 | 15.56° C | 29% | 1013.9 hPa | 0 mm | - | - | - |
| 1777952237 | 15.56° C | 29% | 1013.9 hPa | 0 mm | - | - | - |
| 1777951636 | 15.56° C | 29% | 1013.5 hPa | 0 mm | - | - | - |
| 1777951258 | 15.56° C | 28% | 1013.5 hPa | 0 mm | - | - | - |
| 1777951035 | 15.56° C | 28% | 1013.5 hPa | 0 mm | - | - | - |
| 1777950434 | 15.56° C | 28% | 1013.2 hPa | 0 mm | - | - | - |
| 1777949832 | 16.11° C | 28% | 1013.2 hPa | 0 mm | - | - | - |
| 1777949232 | 16.11° C | 28% | 1013.2 hPa | 0 mm | - | - | - |
| 1777948631 | 16.11° C | 28% | 1013.2 hPa | 0 mm | - | - | - |
| 1777948030 | 16.11° C | 28% | 1013.2 hPa | 0 mm | - | - | - |
| 1777947429 | 16.11° C | 27% | 1012.9 hPa | 0 mm | - | - | - |
| 1777946827 | 16.67° C | 27% | 1012.9 hPa | 0 mm | - | - | - |
* Rain latest hour (hover to see other rain measurements)
** Current wind speed in m/s (hover to see current wind gust speed)